LKST weather

Strakonice Airport
Strakonice, South Bohemian Region, Czechia

Public forecast

Using degrees Celsius for public forecast. Weather courtesy of forecast.io.

METAR (pilot weather report)

Closest report is Plzeň-Líně Airport, 35.0 nm (64.9 km) NW. Retrieved 2019/08/21 23:00 UTC (49 minutes ago):

LKLN 212300Z AUTO 02001KT CAVOK 12/11 Q1029

TAF (pilot weather forecast)

Closest forecast is Václav Havel Airport Prague, 52.9 nm (98.0 km) NNE. Retrieved 2019/08/21 18:20 UTC (5 hours ago):

TAF LKPR 211700Z 2118/2300 05004KT CAVOK TEMPO 2202/2206 3000 BR SCT007 PROB30 TEMPO 2203/2205 1200 MIFG BKN004 BECMG 2207/2210 07010KT 9999 SCT040 PROB30 TEMPO 2211/2216 BKN040 BECMG 2216/2218 10005KT CAVOK